Saint-Zacharie, Canada
Current Conditions -  °F | °C
As of 1:15 PM on Thursday 18 Dec 2014 (Local Time) from CYQB Reporting Station
Overcast Overcast  
Wind Chill: 22°   Ceiling: 4000
Heat Index: 30°   Visibility: 8mi
Dew Point: 28°   Wind: 9mph
Humidity: 93%   Direction: 230°SW
Pressure: 29.75"   Gusts: NA
Location:  46.13°N, 70.37°W
Report Text: CYQB 181815Z 23008KT 8SM FEW010 BKN040 OVC068 M01/M02 A2975 RMK SF1SC5AC3 SF TR SLP079
Loading
Personal Weather Stations






























Interactive Weather Map New forecast layout! Learn more

10-Day Weather Forecast

Advertisements
Track Severe Weather on mobile